Time;durP1;ratioP1;P1;durP2;ratioP2;P2;SDS_P1;SDS_P2;PMS_P1;PMS_P2;Temp;Humidity;BMP_temperature;BMP_pressure;BME280_temperature;BME280_humidity;BME280_pressure;Samples;Min_cycle;Max_cycle;Signal;HPM_P1;HPM_P2
2022/02/01 00:00:56;;;;;;;9.50;4.53;;;1.60;99.90;0.60;100055.00;;;;4999718;27;82872;-72
2022/02/01 00:03:24;;;;;;;6.33;4.20;;;1.00;99.90;0.60;100054.00;;;;5021213;27;82584;-71
2022/02/01 00:06:02;;;;;;;11.10;4.60;;;0.90;99.90;0.60;100075.00;;;;5020710;27;83025;-71
2022/02/01 00:08:40;;;;;;;13.90;4.60;;;1.50;99.90;0.70;100073.00;;;;5020650;27;82094;-70
2022/02/01 00:11:21;;;;;;;16.23;4.33;;;0.90;99.90;0.70;100075.00;;;;5020580;27;82686;-71
2022/02/01 00:14:12;;;;;;;20.87;5.47;;;0.90;99.90;0.70;100076.00;;;;5020558;27;82736;-70
2022/02/01 00:19:48;;;;;;;22.40;6.70;;;1.40;99.90;0.70;100090.00;;;;5017806;27;83657;-70
2022/02/01 00:36:00;;;;;;;9.13;4.97;;;1.10;99.90;0.90;100089.00;;;;5017269;27;98349;-70
2022/02/01 00:39:11;;;;;;;8.47;4.43;;;1.80;99.90;0.90;100101.00;;;;5019880;27;82692;-70
2022/02/01 00:41:15;;;;;;;14.30;5.00;;;1.10;99.90;0.90;100110.00;;;;5018317;27;82769;-70
2022/02/01 00:43:40;;;;;;;12.50;4.57;;;1.10;99.90;0.90;100098.00;;;;5018295;27;83541;-70
2022/02/01 00:46:06;;;;;;;14.83;4.00;;;1.70;99.90;0.90;100111.00;;;;5018140;27;108500;-70
2022/02/01 00:48:32;;;;;;;8.53;4.80;;;2.00;99.90;1.00;100110.00;;;;5016673;27;112946;-70
2022/02/01 00:50:58;;;;;;;9.30;4.67;;;1.20;99.90;1.00;100116.00;;;;5016574;27;84113;-69
2022/02/01 00:53:29;;;;;;;17.00;4.37;;;1.30;99.90;1.00;100112.00;;;;5019754;27;82809;-69
2022/02/01 00:55:56;;;;;;;9.20;5.17;;;2.20;99.90;1.00;100106.00;;;;5019520;27;82454;-69
2022/02/01 00:58:23;;;;;;;13.57;4.97;;;2.00;99.90;1.00;100110.00;;;;5017437;27;83113;-69
2022/02/01 01:00:49;;;;;;;10.07;4.80;;;1.20;99.90;1.00;100117.00;;;;5018678;27;87347;-69
2022/02/01 01:03:15;;;;;;;9.07;4.27;;;2.00;99.90;0.90;100114.00;;;;5019289;27;110112;-70
2022/02/01 01:05:41;;;;;;;9.13;4.27;;;1.20;99.90;0.90;100121.00;;;;5017607;27;82879;-69
2022/02/01 01:08:07;;;;;;;10.90;5.17;;;2.00;99.90;1.00;100116.00;;;;5018914;27;92617;-70
2022/02/01 01:10:34;;;;;;;8.00;4.67;;;2.10;99.90;1.00;100139.00;;;;5018401;27;114293;-69
2022/02/01 01:13:30;;;;;;;13.63;5.60;;;1.20;99.90;0.90;100123.00;;;;5019769;27;82607;-69
2022/02/01 01:16:09;;;;;;;11.07;5.20;;;1.80;99.90;0.90;100130.00;;;;5019359;27;82784;-69
2022/02/01 01:54:14;;;;;;;8.30;4.43;;;1.20;99.90;1.00;100145.00;;;;4998643;27;82020;-69
2022/02/01 01:56:40;;;;;;;8.63;3.93;;;2.20;99.90;0.90;100139.00;;;;4997621;27;82520;-71
2022/02/01 01:59:08;;;;;;;13.53;4.57;;;1.30;99.90;0.90;100143.00;;;;4996683;28;93783;-70
2022/02/01 02:01:35;;;;;;;14.50;4.67;;;1.40;99.90;1.00;100132.00;;;;4997776;27;97687;-71
2022/02/01 02:04:02;;;;;;;10.10;4.13;;;2.10;99.90;1.00;100131.00;;;;4996584;28;83151;-71
2022/02/01 02:06:31;;;;;;;8.07;4.97;;;1.40;99.90;1.00;100114.00;;;;4996172;28;84031;-71
2022/02/01 02:09:00;;;;;;;12.70;4.90;;;1.30;99.90;1.00;100119.00;;;;4998082;28;82878;-74
2022/02/01 02:11:52;;;;;;;11.17;4.70;;;2.20;99.90;1.00;100128.00;;;;4996394;27;83050;-73
2022/02/01 02:16:47;;;;;;;10.70;4.33;;;1.20;99.90;1.00;100136.00;;;;4998315;27;82678;-74
2022/02/01 02:19:13;;;;;;;9.90;3.37;;;1.30;99.90;1.10;100139.00;;;;4996333;27;82331;-74
2022/02/01 02:21:40;;;;;;;9.13;3.90;;;1.30;99.90;1.10;100134.00;;;;4995710;28;82981;-74
2022/02/01 02:24:08;;;;;;;15.80;4.40;;;1.40;99.90;1.10;100138.00;;;;4997920;28;83195;-74
2022/02/01 02:26:34;;;;;;;11.10;4.97;;;1.30;99.90;1.10;100143.00;;;;4997856;28;83661;-72
2022/02/01 02:29:01;;;;;;;13.90;4.80;;;1.60;99.90;1.10;100127.00;;;;4997728;28;82650;-72
2022/02/01 02:31:27;;;;;;;10.83;3.87;;;2.30;99.90;1.10;100137.00;;;;4997997;28;83957;-72
2022/02/01 02:34:08;;;;;;;10.50;4.40;;;1.40;99.90;1.10;100141.00;;;;4997964;28;82715;-73
2022/02/01 02:36:41;;;;;;;7.30;4.77;;;1.50;99.90;1.20;100145.00;;;;4996470;28;82679;-74
2022/02/01 02:39:23;;;;;;;17.77;4.53;;;1.70;99.90;1.20;100147.00;;;;4996051;28;82823;-73
2022/02/01 02:42:08;;;;;;;12.80;4.30;;;1.50;99.90;1.20;100147.00;;;;4995912;28;82968;-72
2022/02/01 02:47:28;;;;;;;12.57;4.03;;;1.70;99.90;1.20;100166.00;;;;4993263;28;82696;-73
2022/02/01 02:49:54;;;;;;;14.07;5.17;;;1.50;99.90;1.20;100165.00;;;;4997312;28;82627;-74
2022/02/01 02:52:20;;;;;;;13.97;5.30;;;2.30;99.90;1.30;100173.00;;;;4994499;28;84648;-73
2022/02/01 02:54:46;;;;;;;13.53;5.90;;;1.60;99.90;1.30;100170.00;;;;4996219;28;83883;-73
2022/02/01 02:57:12;;;;;;;9.30;4.13;;;1.60;99.90;1.30;100175.00;;;;5012579;27;82851;-73
2022/02/01 02:59:38;;;;;;;7.97;4.60;;;1.60;99.90;1.30;100176.00;;;;4997040;28;109135;-74
2022/02/01 03:02:06;;;;;;;11.37;5.27;;;1.60;99.90;1.30;100175.00;;;;4997339;28;83113;-72
2022/02/01 03:04:35;;;;;;;10.03;3.83;;;1.50;99.90;1.30;100170.00;;;;4997157;28;83027;-72
2022/02/01 03:07:03;;;;;;;6.93;4.37;;;1.70;99.90;1.30;100188.00;;;;5011212;27;82682;-73
2022/02/01 03:09:31;;;;;;;19.40;3.97;;;1.60;99.90;1.40;100176.00;;;;5017847;27;81886;-72
2022/02/01 03:11:59;;;;;;;7.67;5.13;;;1.60;99.90;1.40;100174.00;;;;5017162;27;83716;-72
2022/02/01 03:14:28;;;;;;;16.70;4.67;;;1.70;99.90;1.40;100172.00;;;;4997535;27;82939;-71
2022/02/01 03:22:07;;;;;;;11.47;5.67;;;1.70;99.90;1.40;100174.00;;;;4993734;28;82768;-73
2022/02/01 03:24:33;;;;;;;10.73;6.00;;;1.70;99.90;1.40;100171.00;;;;4997549;28;82744;-72
2022/02/01 03:26:59;;;;;;;13.27;5.30;;;1.70;99.90;1.40;100166.00;;;;4996829;28;89666;-72
2022/02/01 03:29:25;;;;;;;11.67;5.23;;;1.70;99.90;1.40;100158.00;;;;4996950;28;85733;-73
2022/02/01 03:31:51;;;;;;;6.83;4.27;;;1.70;99.90;1.50;100172.00;;;;4995578;28;106120;-72
2022/02/01 03:34:17;;;;;;;13.50;5.33;;;1.70;99.90;1.50;100167.00;;;;4996913;28;82772;-72
2022/02/01 03:36:43;;;;;;;10.60;5.40;;;1.80;99.90;1.50;100177.00;;;;4994875;28;82668;-73
2022/02/01 03:39:09;;;;;;;14.10;6.87;;;2.10;99.90;1.50;100175.00;;;;4995030;27;87222;-74
2022/02/01 03:41:34;;;;;;;8.40;5.80;;;2.00;99.90;1.50;100166.00;;;;4995955;28;102702;-72
2022/02/01 03:44:03;;;;;;;11.87;6.47;;;1.80;99.90;1.50;100173.00;;;;4996323;27;95459;-72
2022/02/01 03:46:29;;;;;;;14.40;6.20;;;1.60;99.90;1.50;100162.00;;;;4995456;27;83107;-74
2022/02/01 03:48:54;;;;;;;21.80;6.27;;;1.90;99.90;1.60;100172.00;;;;4995113;28;107929;-73
2022/02/01 03:51:20;;;;;;;13.50;5.70;;;1.80;99.90;1.60;100178.00;;;;4995576;28;112194;-71
2022/02/01 03:53:46;;;;;;;12.03;6.53;;;2.60;99.90;1.60;100176.00;;;;4996003;28;82625;-73
2022/02/01 03:56:11;;;;;;;16.63;6.90;;;1.90;99.90;1.60;100168.00;;;;4993839;28;109990;-73
2022/02/01 03:58:37;;;;;;;10.33;5.97;;;1.90;99.90;1.60;100159.00;;;;4995641;28;109025;-75
2022/02/01 04:01:03;;;;;;;10.13;6.07;;;1.90;99.90;1.60;100162.00;;;;5010819;27;105632;-76
2022/02/01 04:03:29;;;;;;;19.67;6.73;;;1.80;99.90;1.60;100165.00;;;;4992315;28;112554;-76
2022/02/01 04:05:55;;;;;;;13.97;7.27;;;2.10;99.90;1.60;100179.00;;;;4995037;27;83681;-73
2022/02/01 04:08:23;;;;;;;10.57;6.03;;;1.80;99.90;1.60;100175.00;;;;4994209;28;82850;-73
2022/02/01 04:10:50;;;;;;;17.00;7.77;;;1.90;99.90;1.60;100177.00;;;;4995726;28;82802;-72
2022/02/01 04:13:17;;;;;;;17.63;8.20;;;1.70;99.90;1.70;100180.00;;;;4994223;27;82940;-74
2022/02/01 04:15:43;;;;;;;17.97;7.27;;;2.50;99.90;1.70;100179.00;;;;4995517;27;82912;-75
2022/02/01 04:18:11;;;;;;;10.83;6.63;;;1.90;99.90;1.70;100183.00;;;;4993614;27;82637;-72
2022/02/01 04:20:37;;;;;;;16.00;7.23;;;2.50;99.90;1.70;100185.00;;;;5007088;27;84144;-73
2022/02/01 04:23:03;;;;;;;9.77;6.80;;;2.00;99.90;1.70;100181.00;;;;5019582;27;82783;-74
2022/02/01 04:25:29;;;;;;;13.37;7.40;;;2.00;99.90;1.70;100182.00;;;;5019767;27;82581;-73
2022/02/01 04:27:55;;;;;;;13.60;7.90;;;2.00;99.90;1.80;100181.00;;;;5019275;27;82793;-74
2022/02/01 04:30:21;;;;;;;13.87;7.60;;;2.00;99.90;1.80;100193.00;;;;5016536;27;98169;-71
2022/02/01 04:32:52;;;;;;;14.77;7.63;;;2.10;99.90;1.80;100200.00;;;;5019872;27;84108;-72
2022/02/01 04:35:30;;;;;;;15.90;6.40;;;2.00;99.90;1.80;100182.00;;;;5002745;27;82605;-70
2022/02/01 04:37:57;;;;;;;18.20;7.43;;;2.10;99.90;1.80;100198.00;;;;4997076;28;89324;-70
2022/02/01 04:40:26;;;;;;;13.77;6.50;;;3.00;99.90;1.80;100203.00;;;;4999995;28;84503;-70
2022/02/01 04:42:52;;;;;;;15.23;6.97;;;2.10;99.90;1.80;100183.00;;;;4998667;28;83140;-71
2022/02/01 04:45:22;;;;;;;10.57;6.20;;;2.00;99.90;1.80;100199.00;;;;4999350;28;82564;-71
2022/02/01 04:47:50;;;;;;;16.33;7.70;;;2.00;99.90;1.80;100198.00;;;;4999568;28;81944;-69
2022/02/01 04:50:20;;;;;;;13.83;7.80;;;2.00;99.90;1.80;100190.00;;;;4999195;28;82653;-70
2022/02/01 04:52:49;;;;;;;9.87;6.07;;;2.10;99.90;1.80;100185.00;;;;4998992;28;83055;-69
2022/02/01 04:55:15;;;;;;;14.50;6.47;;;2.90;99.90;1.70;100169.00;;;;5001835;27;83759;-69
2022/02/01 04:57:53;;;;;;;9.03;6.53;;;2.00;99.90;1.70;100164.00;;;;5019011;27;97814;-71
2022/02/01 05:00:29;;;;;;;12.33;6.70;;;1.90;99.90;1.60;100164.00;;;;5019637;27;84148;-71
2022/02/01 05:03:00;;;;;;;12.13;7.00;;;1.90;99.90;1.50;100153.00;;;;5017814;27;82853;-70
2022/02/01 05:05:30;;;;;;;9.40;5.90;;;1.90;99.90;1.50;100158.00;;;;5020136;27;82799;-72
2022/02/01 05:08:02;;;;;;;13.30;6.53;;;1.80;99.90;1.50;100167.00;;;;5017679;27;82731;-70
2022/02/01 05:10:32;;;;;;;12.40;6.43;;;1.70;99.90;1.40;100162.00;;;;5019073;27;83941;-71
2022/02/01 05:13:23;;;;;;;11.57;6.63;;;1.80;99.90;1.40;100161.00;;;;5019011;27;83120;-71
2022/02/01 05:15:45;;;;;;;17.23;7.47;;;1.70;99.90;1.40;100150.00;;;;5017560;27;82668;-69
2022/02/01 05:18:17;;;;;;;12.17;6.90;;;1.70;99.90;1.40;100149.00;;;;5033692;27;82629;-68
2022/02/01 05:20:46;;;;;;;12.87;6.10;;;1.60;99.90;1.40;100146.00;;;;5019000;27;83535;-68
2022/02/01 05:23:12;;;;;;;19.67;6.77;;;1.60;99.90;1.40;100147.00;;;;5034547;27;84979;-69
2022/02/01 05:25:40;;;;;;;14.30;6.90;;;1.70;99.90;1.40;100150.00;;;;5018912;27;110015;-72
2022/02/01 05:28:05;;;;;;;9.27;6.00;;;1.80;99.90;1.40;100153.00;;;;5018665;27;82575;-71
2022/02/01 05:30:31;;;;;;;10.00;6.30;;;2.20;99.90;1.50;100165.00;;;;5015012;27;111394;-70
2022/02/01 05:32:57;;;;;;;22.83;8.40;;;1.80;99.90;1.50;100163.00;;;;4997084;27;112800;-69
2022/02/01 05:35:23;;;;;;;16.20;7.70;;;1.70;99.90;1.50;100155.00;;;;4998177;28;109082;-69
2022/02/01 05:37:49;;;;;;;10.43;5.93;;;1.80;99.90;1.50;100166.00;;;;4998280;27;91110;-70
2022/02/01 05:40:15;;;;;;;9.10;6.07;;;1.80;99.90;1.50;100161.00;;;;4998681;28;89779;-69
2022/02/01 05:42:46;;;;;;;17.37;6.77;;;1.80;99.90;1.50;100147.00;;;;4998112;27;82660;-70
2022/02/01 05:45:12;;;;;;;15.70;7.87;;;2.10;99.90;1.50;100160.00;;;;4996520;28;83793;-70
2022/02/01 05:47:38;;;;;;;16.77;6.40;;;1.80;99.90;1.50;100159.00;;;;4998306;28;82659;-70
2022/02/01 05:50:05;;;;;;;18.30;7.00;;;1.80;99.90;1.60;100158.00;;;;4997177;28;83910;-70
2022/02/01 05:52:31;;;;;;;11.17;7.37;;;1.80;99.90;1.60;100157.00;;;;4997775;27;83840;-69
2022/02/01 05:54:57;;;;;;;16.57;8.93;;;1.80;99.90;1.50;100158.00;;;;4998043;28;95670;-71
2022/02/01 05:57:25;;;;;;;12.43;8.47;;;2.00;99.90;1.60;100167.00;;;;4997971;28;93848;-70
2022/02/01 05:59:51;;;;;;;16.67;9.03;;;1.80;99.90;1.60;100170.00;;;;5010086;27;83871;-71
2022/02/01 06:02:18;;;;;;;13.77;7.00;;;2.30;99.90;1.50;100171.00;;;;5017656;27;111968;-71
2022/02/01 06:04:44;;;;;;;18.43;7.80;;;1.80;99.90;1.50;100189.00;;;;5019077;27;83065;-70
2022/02/01 06:07:10;;;;;;;20.27;7.83;;;2.20;99.90;1.50;100181.00;;;;5015945;27;82881;-70
2022/02/01 06:09:36;;;;;;;17.70;8.77;;;1.80;99.90;1.50;100184.00;;;;5009308;27;83765;-70
2022/02/01 06:12:01;;;;;;;9.10;7.07;;;1.80;99.90;1.50;100185.00;;;;5008480;27;112223;-70
2022/02/01 06:14:27;;;;;;;11.10;7.40;;;1.70;99.90;1.50;100190.00;;;;4994822;27;83106;-71
2022/02/01 06:16:53;;;;;;;20.90;8.53;;;1.80;99.90;1.50;100184.00;;;;4995590;27;83095;-70
2022/02/01 06:19:18;;;;;;;14.70;8.30;;;2.60;99.90;1.50;100174.00;;;;4994071;27;111710;-70
2022/02/01 06:21:44;;;;;;;16.60;9.03;;;1.80;99.90;1.50;100179.00;;;;4993659;27;112306;-70
2022/02/01 06:24:10;;;;;;;12.37;9.20;;;1.80;99.90;1.50;100187.00;;;;4994462;27;109563;-71
2022/02/01 06:26:36;;;;;;;19.27;9.07;;;2.30;99.90;1.60;100188.00;;;;4994907;27;82082;-71
2022/02/01 06:29:02;;;;;;;13.77;8.27;;;2.40;99.90;1.60;100198.00;;;;5007335;27;82631;-72
2022/02/01 06:31:28;;;;;;;13.37;9.43;;;2.70;99.90;1.60;100190.00;;;;4994905;27;82871;-71
2022/02/01 06:33:54;;;;;;;14.40;8.37;;;1.80;99.90;1.60;100191.00;;;;4993523;27;108402;-72
2022/02/01 06:36:19;;;;;;;12.67;8.57;;;1.80;99.90;1.60;100195.00;;;;5009150;27;82766;-71
2022/02/01 06:38:45;;;;;;;18.03;9.13;;;1.90;99.90;1.60;100183.00;;;;4994272;27;85595;-71
2022/02/01 06:41:11;;;;;;;13.97;9.27;;;1.80;99.90;1.60;100191.00;;;;4993120;27;82743;-70
2022/02/01 06:43:37;;;;;;;15.10;8.50;;;1.80;99.90;1.60;100192.00;;;;4992725;27;110638;-71
2022/02/01 06:46:02;;;;;;;16.23;8.50;;;2.70;99.90;1.60;100212.00;;;;4993831;27;108393;-70
2022/02/01 06:48:28;;;;;;;14.77;8.93;;;1.80;99.90;1.60;100205.00;;;;4993386;27;100125;-71
2022/02/01 06:50:54;;;;;;;14.20;7.80;;;1.80;99.90;1.50;100199.00;;;;4994456;27;83990;-71
2022/02/01 06:53:20;;;;;;;13.03;7.83;;;2.70;99.90;1.50;100202.00;;;;4999832;27;82624;-69
2022/02/01 06:55:58;;;;;;;16.03;8.27;;;1.90;99.90;1.50;100211.00;;;;5003347;27;82600;-71
2022/02/01 06:58:24;;;;;;;18.67;8.70;;;2.00;99.90;1.40;100206.00;;;;4994080;27;83742;-74
2022/02/01 07:00:50;;;;;;;14.73;6.30;;;1.60;99.90;1.40;100207.00;;;;5003901;27;83594;-75
2022/02/01 07:03:15;;;;;;;16.97;7.87;;;1.70;99.90;1.30;100218.00;;;;5007110;27;110067;-75
2022/02/01 07:05:41;;;;;;;15.23;7.40;;;1.60;99.90;1.20;100203.00;;;;4992453;27;109512;-79
2022/02/01 07:08:07;;;;;;;10.80;7.43;;;1.50;99.90;1.10;100203.00;;;;4998578;27;112394;-74
2022/02/01 07:10:33;;;;;;;20.93;8.87;;;1.50;99.90;1.00;100207.00;;;;4993749;27;83601;-74
2022/02/01 07:12:59;;;;;;;10.23;6.37;;;1.50;99.90;1.00;100217.00;;;;4993028;27;83297;-76
2022/02/01 07:15:25;;;;;;;14.40;7.43;;;1.30;99.90;1.00;100213.00;;;;4993821;27;83594;-74
2022/02/01 07:17:53;;;;;;;11.67;7.07;;;1.30;99.90;0.90;100201.00;;;;5003514;27;83574;-73
2022/02/01 07:20:20;;;;;;;14.90;6.93;;;1.30;99.90;0.90;100201.00;;;;4993565;27;84066;-72
2022/02/01 07:22:48;;;;;;;17.27;7.03;;;1.20;99.90;0.90;100215.00;;;;4994956;28;83564;-73
2022/02/01 07:25:24;;;;;;;14.67;7.80;;;1.10;99.90;0.80;100207.00;;;;4997134;28;82611;-72
2022/02/01 07:27:53;;;;;;;9.30;5.87;;;1.90;99.90;0.80;100211.00;;;;4996274;27;83147;-72
2022/02/01 07:30:24;;;;;;;10.47;6.37;;;1.60;99.90;0.80;100220.00;;;;4996625;28;112513;-72
2022/02/01 07:32:56;;;;;;;10.50;7.20;;;1.90;99.90;0.80;100211.00;;;;5000850;28;82643;-73
2022/02/01 07:35:24;;;;;;;9.37;6.33;;;1.20;99.90;0.80;100210.00;;;;4995242;28;82541;-73
2022/02/01 07:37:52;;;;;;;10.93;7.03;;;1.50;99.90;0.80;100188.00;;;;5010690;27;84551;-73
2022/02/01 07:40:18;;;;;;;10.00;5.63;;;1.50;99.90;0.80;100206.00;;;;4997114;27;83175;-73
2022/02/01 07:42:43;;;;;;;11.33;6.27;;;1.90;99.90;0.90;100194.00;;;;4996554;27;82598;-75
2022/02/01 07:45:12;;;;;;;13.17;6.53;;;1.90;99.90;0.90;100192.00;;;;4996443;27;96192;-74
2022/02/01 07:47:38;;;;;;;11.37;6.60;;;1.40;99.90;0.90;100191.00;;;;4995928;27;84726;-77
2022/02/01 07:50:08;;;;;;;9.23;6.07;;;1.50;99.90;0.90;100191.00;;;;4994600;28;83907;-76
2022/02/01 07:52:34;;;;;;;10.73;6.43;;;1.20;99.90;1.00;100186.00;;;;4997092;27;82514;-76
2022/02/01 07:55:00;;;;;;;11.63;8.17;;;1.20;99.90;1.00;100184.00;;;;5017960;27;82700;-73
2022/02/01 07:57:26;;;;;;;9.60;5.77;;;1.30;99.90;1.00;100181.00;;;;5017948;27;82828;-76
2022/02/01 07:59:53;;;;;;;10.00;6.43;;;1.60;99.90;1.10;100185.00;;;;5017866;27;84055;-75
2022/02/01 08:02:22;;;;;;;11.07;6.13;;;1.40;99.90;1.10;100178.00;;;;5032447;27;83581;-75
2022/02/01 08:04:48;;;;;;;9.10;6.03;;;2.20;99.90;1.10;100196.00;;;;4999946;27;82110;-76
2022/02/01 08:07:15;;;;;;;10.43;5.83;;;1.50;99.90;1.20;100192.00;;;;5019739;27;83474;-75
2022/02/01 08:09:46;;;;;;;9.83;6.23;;;1.40;99.90;1.20;100196.00;;;;4999470;28;82993;-78
2022/02/01 08:16:02;;;;;;;8.13;5.97;;;1.60;99.90;1.30;100195.00;;;;5006592;27;82817;-77
2022/02/01 08:18:21;;;;;;;12.50;5.90;;;1.50;99.90;1.30;100215.00;;;;5016275;27;82944;-76
2022/02/01 08:21:00;;;;;;;10.03;5.83;;;1.50;99.90;1.30;100212.00;;;;5018341;27;83679;-76
2022/02/01 08:23:26;;;;;;;15.87;6.73;;;2.30;99.90;1.40;100213.00;;;;4997186;27;82923;-77
2022/02/01 08:25:53;;;;;;;12.40;6.87;;;1.60;99.90;1.40;100202.00;;;;5005830;27;97492;-76
2022/02/01 08:28:21;;;;;;;10.17;6.37;;;1.60;99.90;1.40;100214.00;;;;5017481;27;83909;-79
2022/02/01 08:30:52;;;;;;;11.57;6.07;;;2.30;99.90;1.50;100219.00;;;;5017566;27;82885;-80
2022/02/01 08:33:18;;;;;;;12.17;6.20;;;2.00;99.90;1.50;100231.00;;;;5016072;27;83417;-80
2022/02/01 08:35:44;;;;;;;10.57;6.70;;;1.80;99.90;1.60;100238.00;;;;5015592;27;82860;-78
2022/02/01 08:38:10;;;;;;;13.00;6.40;;;1.80;99.90;1.60;100229.00;;;;5007037;27;111823;-77
2022/02/01 08:40:36;;;;;;;11.87;6.90;;;1.90;99.90;1.70;100236.00;;;;4998085;28;113769;-77
2022/02/01 08:43:02;;;;;;;12.07;6.83;;;1.90;99.90;1.70;100227.00;;;;5004263;27;82895;-77
2022/02/01 08:45:28;;;;;;;7.13;5.50;;;2.00;99.90;1.70;100222.00;;;;4999353;28;82803;-76
2022/02/01 08:47:56;;;;;;;14.57;6.77;;;2.00;99.90;1.80;100221.00;;;;5004396;27;100114;-76
2022/02/01 08:50:29;;;;;;;15.80;6.57;;;2.10;99.90;1.80;100218.00;;;;5017424;27;85705;-75
2022/02/01 08:53:12;;;;;;;10.43;5.83;;;2.00;99.90;1.80;100216.00;;;;4999568;27;82852;-76
2022/02/01 08:55:49;;;;;;;13.83;5.43;;;2.00;99.90;1.90;100211.00;;;;4999688;28;82201;-75
2022/02/01 08:58:15;;;;;;;9.80;5.30;;;2.40;99.90;1.90;100211.00;;;;4997868;27;84757;-77
2022/02/01 09:00:40;;;;;;;15.03;7.13;;;2.10;99.90;1.90;100225.00;;;;4996353;28;112249;-77
2022/02/01 09:03:07;;;;;;;9.77;6.50;;;2.10;99.90;1.90;100214.00;;;;5000286;27;111129;-77
2022/02/01 09:05:33;;;;;;;9.70;6.23;;;2.10;99.90;2.00;100218.00;;;;4998507;27;82771;-74
2022/02/01 09:08:04;;;;;;;11.10;5.60;;;2.20;99.90;2.00;100207.00;;;;5032053;27;84923;-77
2022/02/01 09:10:31;;;;;;;8.93;6.07;;;2.70;99.90;2.00;100213.00;;;;5015339;27;83301;-74
2022/02/01 09:12:59;;;;;;;12.97;6.80;;;2.30;99.90;2.10;100206.00;;;;4999560;27;82607;-74
2022/02/01 09:15:26;;;;;;;11.27;5.70;;;2.50;99.90;2.10;100213.00;;;;4999108;28;83130;-72
2022/02/01 09:17:56;;;;;;;10.70;5.97;;;2.40;99.90;2.10;100214.00;;;;5001940;27;82989;-75
2022/02/01 09:20:23;;;;;;;11.17;5.37;;;2.40;99.90;2.20;100200.00;;;;5019352;27;84010;-73
2022/02/01 09:22:49;;;;;;;10.23;5.63;;;2.40;99.90;2.20;100187.00;;;;5016734;27;97110;-73
2022/02/01 09:25:17;;;;;;;8.40;5.60;;;3.20;99.90;2.20;100190.00;;;;5017450;27;82823;-72
2022/02/01 09:27:44;;;;;;;9.83;5.23;;;2.50;99.90;2.30;100184.00;;;;5016386;27;84246;-73
2022/02/01 09:30:11;;;;;;;12.43;6.07;;;2.50;99.90;2.30;100180.00;;;;5018401;27;84508;-71
2022/02/01 09:32:37;;;;;;;13.47;6.50;;;2.50;99.90;2.40;100191.00;;;;5015859;27;82822;-73
2022/02/01 09:35:03;;;;;;;13.30;5.40;;;2.60;99.90;2.40;100182.00;;;;5018879;27;82547;-70
2022/02/01 09:37:30;;;;;;;13.50;5.53;;;2.70;99.90;2.50;100176.00;;;;5017926;27;97908;-71
2022/02/01 09:39:56;;;;;;;14.43;5.87;;;2.60;99.90;2.50;100159.00;;;;5019685;27;83075;-71
2022/02/01 09:42:27;;;;;;;6.03;4.43;;;2.70;99.90;2.60;100159.00;;;;5019140;27;82605;-71
2022/02/01 09:44:54;;;;;;;11.20;4.60;;;2.80;99.90;2.60;100149.00;;;;5020114;27;82164;-71
2022/02/01 09:47:35;;;;;;;7.03;4.27;;;2.80;99.90;2.60;100147.00;;;;5019612;27;83319;-72
2022/02/01 09:50:02;;;;;;;6.33;3.80;;;2.90;99.90;2.70;100136.00;;;;5017569;27;82754;-71
2022/02/01 09:52:30;;;;;;;9.07;4.30;;;2.80;99.90;2.70;100144.00;;;;5017933;27;83525;-71
2022/02/01 09:54:57;;;;;;;7.23;4.23;;;3.00;99.90;2.80;100139.00;;;;5017693;27;82884;-72
2022/02/01 09:57:23;;;;;;;7.40;3.37;;;2.90;99.90;2.80;100154.00;;;;5014228;27;82955;-73
2022/02/01 09:59:54;;;;;;;7.57;4.17;;;3.10;99.90;2.80;100126.00;;;;5018012;27;83074;-73
2022/02/01 10:02:21;;;;;;;6.97;4.07;;;3.10;99.90;2.80;100125.00;;;;5013180;27;82951;-72
2022/02/01 10:05:02;;;;;;;12.87;4.07;;;2.80;99.90;2.80;100127.00;;;;4999181;28;82423;-73
2022/02/01 10:07:28;;;;;;;7.87;3.57;;;3.10;99.90;2.80;100120.00;;;;5002864;27;83337;-74
2022/02/01 10:09:59;;;;;;;4.60;2.60;;;3.00;99.90;2.80;100126.00;;;;5019295;27;112600;-74
2022/02/01 10:12:35;;;;;;;4.70;3.13;;;3.00;99.90;2.80;100112.00;;;;5017071;27;82715;-77
2022/02/01 10:15:09;;;;;;;14.20;3.63;;;3.10;99.90;2.80;100114.00;;;;5016686;27;82704;-74
2022/02/01 10:17:43;;;;;;;17.33;3.90;;;3.00;99.90;2.90;100112.00;;;;5014234;27;83843;-74
2022/02/01 10:20:11;;;;;;;6.77;3.63;;;3.10;99.90;2.90;100097.00;;;;5017147;27;83301;-77
2022/02/01 10:22:38;;;;;;;8.07;3.27;;;3.10;99.90;3.00;100095.00;;;;5017427;27;82754;-74
2022/02/01 10:25:19;;;;;;;9.97;3.53;;;3.10;99.90;3.00;100090.00;;;;5019903;27;82881;-76
2022/02/01 10:28:00;;;;;;;8.70;3.57;;;3.20;99.90;3.10;100088.00;;;;5011589;27;83532;-75
2022/02/01 10:30:35;;;;;;;3.57;2.63;;;3.30;99.90;3.10;100069.00;;;;4997078;27;82889;-75
2022/02/01 10:38:09;;;;;;;11.57;2.70;;;3.30;99.90;3.10;100067.00;;;;4995572;27;82664;-75
2022/02/01 10:40:46;;;;;;;4.30;2.67;;;3.30;99.90;3.10;100059.00;;;;4997192;28;83223;-73
2022/02/01 10:43:22;;;;;;;4.03;2.07;;;3.30;99.90;3.10;100064.00;;;;4995222;27;83706;-76
2022/02/01 10:45:50;;;;;;;7.43;2.83;;;3.30;99.90;3.00;100059.00;;;;4996086;28;93477;-74
2022/02/01 10:48:22;;;;;;;3.87;2.57;;;3.10;99.90;3.00;100056.00;;;;4995875;27;82881;-75
2022/02/01 10:51:00;;;;;;;5.77;2.23;;;3.30;99.90;3.00;100041.00;;;;4998673;27;83380;-75
2022/02/01 10:53:26;;;;;;;8.57;2.80;;;3.20;99.90;3.00;100037.00;;;;4998001;27;82615;-73
2022/02/01 10:55:52;;;;;;;10.53;2.97;;;3.30;99.90;3.00;100027.00;;;;4995052;28;108439;-74
2022/02/01 10:58:18;;;;;;;4.90;2.53;;;3.20;99.90;3.00;100027.00;;;;5004471;27;112881;-73
2022/02/01 11:00:47;;;;;;;8.07;2.80;;;3.20;99.90;3.00;100020.00;;;;5003069;27;112363;-73
2022/02/01 11:03:14;;;;;;;12.73;2.50;;;3.20;99.90;3.10;100018.00;;;;4997420;27;82705;-72
2022/02/01 11:05:53;;;;;;;5.60;2.33;;;3.20;99.90;3.10;100022.00;;;;5018495;27;82914;-73
2022/02/01 11:08:26;;;;;;;5.27;2.30;;;3.20;99.90;3.10;99999.00;;;;5005498;27;84130;-72
2022/02/01 11:10:55;;;;;;;7.80;1.97;;;3.20;99.90;3.20;100010.00;;;;4998201;28;84907;-72
2022/02/01 11:13:22;;;;;;;9.60;2.93;;;3.40;99.90;3.20;100011.00;;;;4997576;27;82609;-73
2022/02/01 11:16:03;;;;;;;5.43;1.97;;;3.40;99.90;3.20;99998.00;;;;4997714;28;82481;-73
2022/02/01 11:18:30;;;;;;;4.50;1.93;;;3.40;99.90;3.30;99999.00;;;;4996341;27;84096;-73
2022/02/01 11:21:11;;;;;;;6.90;2.20;;;3.40;99.90;3.30;99990.00;;;;4998421;28;82992;-72
2022/02/01 11:24:07;;;;;;;5.17;1.67;;;3.40;99.90;3.40;99981.00;;;;4995603;27;82701;-71
2022/02/01 11:26:38;;;;;;;2.47;1.43;;;3.50;99.90;3.40;99983.00;;;;4998880;28;81912;-73
2022/02/01 11:31:52;;;;;;;8.67;1.73;;;4.40;99.90;3.50;99968.00;;;;4996587;27;82603;-72
2022/02/01 11:34:38;;;;;;;12.13;2.70;;;3.70;99.90;3.50;99964.00;;;;5014652;27;83511;-72
2022/02/01 11:37:09;;;;;;;14.70;2.57;;;3.70;99.90;3.60;99964.00;;;;5016080;27;82581;-71
2022/02/01 11:39:48;;;;;;;9.20;2.73;;;3.80;99.90;3.60;99939.00;;;;5016102;27;82986;-72
2022/02/01 11:42:16;;;;;;;3.33;1.83;;;3.80;99.90;3.60;99946.00;;;;5016273;27;82879;-72
2022/02/01 11:44:42;;;;;;;4.43;1.30;;;3.80;99.90;3.60;99934.00;;;;5015932;27;83087;-71
2022/02/01 11:47:10;;;;;;;4.40;2.20;;;3.80;99.90;3.60;99931.00;;;;5017848;27;82494;-70
2022/02/01 11:49:55;;;;;;;11.87;1.80;;;3.80;99.90;3.60;99923.00;;;;5017876;27;83213;-69
2022/02/01 11:52:22;;;;;;;8.17;2.30;;;3.90;99.90;3.60;99930.00;;;;5017856;27;83196;-70
2022/02/01 11:55:00;;;;;;;5.07;1.33;;;3.90;99.90;3.70;99903.00;;;;5018117;27;82801;-71
2022/02/01 11:57:29;;;;;;;3.83;1.80;;;3.90;99.90;3.70;99904.00;;;;5015128;27;96209;-71
2022/02/01 12:00:15;;;;;;;5.77;1.70;;;3.90;99.90;3.70;99912.00;;;;4995404;27;83901;-72
2022/02/01 12:02:57;;;;;;;6.80;2.13;;;3.90;99.90;3.70;99902.00;;;;5017136;27;84339;-71
2022/02/01 12:05:38;;;;;;;4.63;1.13;;;3.90;99.90;3.80;99896.00;;;;5017708;27;82688;-71
2022/02/01 12:08:14;;;;;;;3.13;1.90;;;4.00;99.90;3.80;99878.00;;;;5017615;27;82499;-71
2022/02/01 12:10:52;;;;;;;7.80;1.93;;;4.00;99.90;3.90;99864.00;;;;5017787;27;83960;-69
2022/02/01 12:13:22;;;;;;;11.00;1.83;;;4.00;99.90;3.90;99863.00;;;;5017193;27;82810;-69
2022/02/01 12:15:51;;;;;;;3.90;1.33;;;4.20;99.90;3.90;99846.00;;;;5017418;27;82627;-70
2022/02/01 12:19:01;;;;;;;2.57;1.30;;;4.10;99.90;4.00;99833.00;;;;5006475;27;82144;-70
2022/02/01 12:21:59;;;;;;;3.93;1.73;;;4.20;99.90;4.00;99819.00;;;;4995442;27;85631;-69